createdAt,value
2022-11-27T00:01:49.163Z,-7.07
2022-11-27T00:04:19.118Z,-6.94
2022-11-27T00:06:48.369Z,-7.03
2022-11-27T00:09:18.766Z,-7.13
2022-11-27T00:11:48.016Z,-7.32
2022-11-27T00:14:24.908Z,-7.12
2022-11-27T00:16:54.255Z,-7.19
2022-11-27T00:19:23.485Z,-7.09
2022-11-27T00:21:53.368Z,-7.10
2022-11-27T00:24:22.882Z,-7.22
2022-11-27T00:26:52.345Z,-7.09
2022-11-27T00:29:21.502Z,-7.09
2022-11-27T00:31:58.196Z,-7.09
2022-11-27T00:34:27.401Z,-7.05
2022-11-27T00:36:56.950Z,-7.06
2022-11-27T00:39:27.184Z,-7.17
2022-11-27T00:41:56.488Z,-7.04
2022-11-27T00:44:25.559Z,-7.12
2022-11-27T00:47:01.851Z,-7.09
2022-11-27T00:49:31.765Z,-7.11
2022-11-27T00:52:00.890Z,-7.08
2022-11-27T00:54:36.579Z,-6.91
2022-11-27T00:57:06.538Z,-6.99
2022-11-27T00:59:35.711Z,-6.98
2022-11-27T01:02:07.168Z,-7.04
2022-11-27T01:04:36.419Z,-7.02
2022-11-27T01:07:05.625Z,-7.06
2022-11-27T01:09:39.929Z,-7.08
2022-11-27T01:12:09.899Z,-6.98
2022-11-27T01:14:39.325Z,-6.95
2022-11-27T01:17:10.752Z,-7.16
2022-11-27T01:19:40.166Z,-7.00
2022-11-27T01:22:09.292Z,-7.18
2022-11-27T01:24:43.652Z,-7.06
2022-11-27T01:27:12.848Z,-7.07
2022-11-27T01:29:42.070Z,-7.04
2022-11-27T01:32:13.240Z,-6.95
2022-11-27T01:34:42.733Z,-7.04
2022-11-27T01:37:11.918Z,-6.88
2022-11-27T01:39:44.368Z,-6.93
2022-11-27T01:42:23.622Z,-6.91
2022-11-27T01:44:56.429Z,-7.02
2022-11-27T01:47:37.365Z,-6.99
2022-11-27T01:50:20.986Z,-7.00
2022-11-27T01:52:59.452Z,-6.93
2022-11-27T01:55:35.053Z,-7.01
2022-11-27T01:58:10.419Z,-6.90
2022-11-27T02:00:40.560Z,-6.86
2022-11-27T02:03:11.864Z,-6.81
2022-11-27T02:05:41.291Z,-6.95
2022-11-27T02:08:14.660Z,-6.88
2022-11-27T02:10:51.229Z,-6.81
2022-11-27T02:13:28.601Z,-6.94
2022-11-27T02:16:07.777Z,-6.86
2022-11-27T02:18:46.401Z,-6.91
2022-11-27T02:21:33.440Z,-6.93
2022-11-27T02:24:29.350Z,-6.82
2022-11-27T02:27:19.588Z,-6.84
2022-11-27T02:29:59.039Z,-6.88
2022-11-27T02:32:34.205Z,-6.78
2022-11-27T02:35:10.109Z,-6.87
2022-11-27T02:37:48.058Z,-6.74
2022-11-27T02:40:23.616Z,-6.77
2022-11-27T02:45:40.896Z,-6.77
2022-11-27T02:48:12.091Z,-6.77
2022-11-27T02:50:45.198Z,-6.90
2022-11-27T02:53:19.975Z,-6.80
2022-11-27T02:55:52.637Z,-6.69
2022-11-27T02:58:31.809Z,-6.64
2022-11-27T03:01:04.166Z,-6.65
2022-11-27T03:03:37.534Z,-6.61
2022-11-27T03:06:16.239Z,-6.66
2022-11-27T03:08:59.546Z,-6.61
2022-11-27T03:11:35.409Z,-6.59
2022-11-27T03:14:08.763Z,-6.84
2022-11-27T03:16:50.488Z,-6.62
2022-11-27T03:19:24.726Z,-6.67
2022-11-27T03:21:55.683Z,-6.50
2022-11-27T03:24:25.443Z,-6.65
2022-11-27T03:27:01.074Z,-6.70
2022-11-27T03:29:37.348Z,-6.51
2022-11-27T03:32:14.023Z,-6.48
2022-11-27T03:34:44.162Z,-6.46
2022-11-27T03:37:13.334Z,-6.35
2022-11-27T03:39:49.767Z,-6.41
2022-11-27T03:42:25.425Z,-6.62
2022-11-27T03:45:10.070Z,-6.34
2022-11-27T03:47:54.412Z,-6.42
2022-11-27T03:50:48.473Z,-6.45
2022-11-27T03:53:24.225Z,-6.34
2022-11-27T03:56:10.041Z,-6.39
2022-11-27T03:58:46.583Z,-6.37
2022-11-27T04:01:20.202Z,-6.33
2022-11-27T04:03:51.559Z,-6.35
2022-11-27T04:06:25.891Z,-6.28
2022-11-27T04:08:55.106Z,-6.28
2022-11-27T04:11:24.286Z,-6.30
2022-11-27T04:13:59.344Z,-6.26
2022-11-27T04:16:28.548Z,-6.21
2022-11-27T04:18:59.978Z,-6.21
2022-11-27T04:21:29.620Z,-6.21
2022-11-27T04:23:58.902Z,-6.16
2022-11-27T04:26:28.143Z,-6.23
2022-11-27T04:28:57.451Z,-6.16
2022-11-27T04:31:26.672Z,-6.24
2022-11-27T04:36:38.867Z,-6.06
2022-11-27T04:39:08.829Z,-5.88
2022-11-27T04:41:37.998Z,-5.96
2022-11-27T04:44:07.401Z,-6.07
2022-11-27T04:46:36.799Z,-5.91
2022-11-27T04:49:06.398Z,-5.90
2022-11-27T04:51:37.785Z,-5.86
2022-11-27T04:54:07.062Z,-5.81
2022-11-27T04:56:36.139Z,-5.77
2022-11-27T04:59:06.150Z,-5.88
2022-11-27T05:01:35.383Z,-5.73
2022-11-27T05:04:04.967Z,-5.83
2022-11-27T05:06:35.655Z,-5.91
2022-11-27T05:09:12.041Z,-5.86
2022-11-27T05:11:41.312Z,-6.01
2022-11-27T05:14:21.479Z,-5.83
2022-11-27T05:16:52.704Z,-5.90
2022-11-27T05:19:23.834Z,-5.88
2022-11-27T05:21:54.706Z,-5.83
2022-11-27T05:24:27.797Z,-5.80
2022-11-27T05:26:58.064Z,-5.83
2022-11-27T05:32:02.623Z,-5.67
2022-11-27T05:34:31.748Z,-5.87
2022-11-27T05:39:52.972Z,-5.75
2022-11-27T05:42:22.368Z,-5.58
2022-11-27T05:44:56.720Z,-5.47
2022-11-27T05:47:27.625Z,-5.46
2022-11-27T05:49:56.919Z,-5.44
2022-11-27T05:52:26.226Z,-5.46
2022-11-27T05:54:57.498Z,-5.45
2022-11-27T05:57:27.785Z,-5.37
2022-11-27T05:59:57.469Z,-5.32
2022-11-27T06:02:34.797Z,-5.39
2022-11-27T06:05:04.186Z,-5.33
2022-11-27T06:07:33.874Z,-5.35
2022-11-27T06:10:05.612Z,-5.19
2022-11-27T06:12:34.944Z,-5.16
2022-11-27T06:15:04.061Z,-5.48
2022-11-27T06:17:33.416Z,-5.11
2022-11-27T06:20:02.631Z,-5.09
2022-11-27T06:22:33.552Z,-5.03
2022-11-27T06:25:05.241Z,-5.16
2022-11-27T06:27:35.484Z,-4.96
2022-11-27T06:30:07.097Z,-4.96
2022-11-27T06:32:47.195Z,-4.93
2022-11-27T06:35:19.484Z,-5.00
2022-11-27T06:37:48.768Z,-4.92
2022-11-27T06:40:20.165Z,-4.94
2022-11-27T06:42:49.429Z,-4.74
2022-11-27T06:47:53.645Z,-4.82
2022-11-27T06:50:22.767Z,-4.76
2022-11-27T06:52:51.959Z,-4.69
2022-11-27T06:55:23.193Z,-4.66
2022-11-27T06:57:53.020Z,-4.51
2022-11-27T07:00:22.951Z,-4.45
2022-11-27T07:02:56.122Z,-4.34
2022-11-27T07:05:26.354Z,-4.44
2022-11-27T07:07:55.514Z,-4.49
2022-11-27T07:10:31.786Z,-4.50
2022-11-27T07:13:01.105Z,-4.47
2022-11-27T07:15:30.364Z,-4.67
2022-11-27T07:18:00.028Z,-4.37
2022-11-27T07:20:29.236Z,-4.37
2022-11-27T07:22:58.521Z,-4.32
2022-11-27T07:25:29.743Z,-4.40
2022-11-27T07:27:59.020Z,-4.41
2022-11-27T07:30:28.242Z,-4.54
2022-11-27T07:32:57.717Z,-4.36
2022-11-27T07:35:27.710Z,-4.37
2022-11-27T07:37:56.907Z,-4.26
2022-11-27T07:40:26.196Z,-4.22
2022-11-27T07:42:57.470Z,-4.22
2022-11-27T07:45:26.794Z,-4.23
2022-11-27T07:47:56.178Z,-4.35
2022-11-27T07:50:25.630Z,-4.12
2022-11-27T07:52:54.929Z,-4.09
2022-11-27T07:55:24.269Z,-4.22
2022-11-27T07:57:53.576Z,-4.04
2022-11-27T08:00:25.399Z,-3.88
2022-11-27T08:03:00.723Z,-3.90
2022-11-27T08:05:35.630Z,-3.78
2022-11-27T08:08:06.337Z,-3.64
2022-11-27T08:10:38.096Z,-3.63
2022-11-27T08:13:08.526Z,-3.64
2022-11-27T08:15:39.690Z,-3.47
2022-11-27T08:18:09.029Z,-3.45
2022-11-27T08:20:43.589Z,-3.43
2022-11-27T08:23:12.822Z,-3.70
2022-11-27T08:25:42.411Z,-3.42
2022-11-27T08:28:11.756Z,-3.39
2022-11-27T08:30:42.947Z,-3.31
2022-11-27T08:33:19.248Z,-3.33
2022-11-27T08:35:50.638Z,-3.34
2022-11-27T08:38:25.775Z,-3.16
2022-11-27T08:40:59.126Z,-3.01
2022-11-27T08:43:29.035Z,-2.81
2022-11-27T08:46:00.657Z,-2.82
2022-11-27T08:48:30.162Z,-2.79
2022-11-27T08:50:59.323Z,-3.03
2022-11-27T08:53:31.570Z,-3.04
2022-11-27T08:56:08.348Z,-3.06
2022-11-27T08:58:42.850Z,-3.06
2022-11-27T09:01:17.048Z,-3.09
2022-11-27T09:03:51.813Z,-2.86
2022-11-27T09:06:26.122Z,-2.73
2022-11-27T09:09:03.263Z,-2.84
2022-11-27T09:11:33.295Z,-2.89
2022-11-27T09:14:02.874Z,-2.65
2022-11-27T09:16:39.494Z,-3.05
2022-11-27T09:19:08.784Z,-2.72
2022-11-27T09:21:38.396Z,-2.69
2022-11-27T09:24:08.654Z,-2.89
2022-11-27T09:26:38.039Z,-2.75
2022-11-27T09:29:07.364Z,-2.64
2022-11-27T09:31:38.614Z,-2.66
2022-11-27T09:34:07.984Z,-2.87
2022-11-27T09:36:37.596Z,-2.85
2022-11-27T09:39:06.964Z,-2.75
2022-11-27T09:41:43.461Z,-2.67
2022-11-27T09:44:42.377Z,-3.17
2022-11-27T09:47:20.176Z,-2.58
2022-11-27T09:50:00.411Z,-2.74
2022-11-27T09:52:37.737Z,-2.74
2022-11-27T09:55:17.156Z,-2.99
2022-11-27T09:57:55.617Z,-3.06
2022-11-27T10:00:25.335Z,-3.05
2022-11-27T10:02:56.715Z,-2.94
2022-11-27T10:05:43.817Z,-2.84
2022-11-27T10:08:37.765Z,-2.89
2022-11-27T10:11:20.571Z,-3.03
2022-11-27T10:14:05.198Z,-2.99
2022-11-27T10:16:44.516Z,-2.90
2022-11-27T10:19:36.307Z,-2.84
2022-11-27T10:25:01.705Z,-3.00
2022-11-27T10:27:44.145Z,-2.95
2022-11-27T10:30:18.370Z,-3.04
2022-11-27T10:32:55.423Z,-2.91
2022-11-27T10:35:34.866Z,-3.06
2022-11-27T10:38:11.053Z,-2.91
2022-11-27T10:40:44.776Z,-3.10
2022-11-27T10:43:19.023Z,-2.86
2022-11-27T10:45:51.904Z,-3.02
2022-11-27T10:48:21.816Z,-2.91
2022-11-27T10:50:53.086Z,-2.82
2022-11-27T10:53:30.873Z,-2.86
2022-11-27T10:56:23.475Z,-2.86
2022-11-27T10:58:57.365Z,-2.91
2022-11-27T11:01:30.166Z,-3.03
2022-11-27T11:04:24.655Z,-3.06
2022-11-27T11:07:00.189Z,-3.23
2022-11-27T11:09:29.985Z,-3.20
2022-11-27T11:12:09.424Z,-3.23
2022-11-27T11:14:39.298Z,-3.38
2022-11-27T11:17:18.183Z,-3.40
2022-11-27T11:19:48.705Z,-3.31
2022-11-27T11:22:20.415Z,-3.36
2022-11-27T11:24:55.738Z,-3.63
2022-11-27T11:27:29.807Z,-3.70
2022-11-27T11:30:11.936Z,-3.84
2022-11-27T11:32:42.392Z,-3.75
2022-11-27T11:35:26.118Z,-3.86
2022-11-27T11:37:58.433Z,-4.01
2022-11-27T11:40:36.718Z,-4.05
2022-11-27T11:43:09.647Z,-4.18
2022-11-27T11:45:48.384Z,-4.34
2022-11-27T11:48:24.378Z,-4.28
2022-11-27T11:50:57.564Z,-4.46
2022-11-27T11:53:35.758Z,-4.20
2022-11-27T11:56:18.985Z,-4.19
2022-11-27T11:58:56.069Z,-4.36
2022-11-27T12:01:40.601Z,-4.32
2022-11-27T12:04:33.349Z,-4.38
2022-11-27T12:07:14.659Z,-4.28
2022-11-27T12:10:02.097Z,-4.25
2022-11-27T12:12:48.915Z,-4.27
2022-11-27T12:15:26.889Z,-4.29
2022-11-27T12:18:02.466Z,-4.27
2022-11-27T12:20:47.856Z,-4.13
2022-11-27T12:23:42.109Z,-4.10
2022-11-27T12:26:24.474Z,-4.12
2022-11-27T12:29:15.009Z,-4.17
2022-11-27T12:32:09.757Z,-4.18
2022-11-27T12:34:50.663Z,-4.14
2022-11-27T12:37:37.922Z,-4.42
2022-11-27T12:40:27.065Z,-4.31
2022-11-27T12:43:10.282Z,-4.25
2022-11-27T12:45:45.000Z,-4.25
2022-11-27T12:55:24.938Z,-4.48
2022-11-27T12:57:59.848Z,-4.57
2022-11-27T13:00:32.843Z,-4.67
2022-11-27T13:03:18.208Z,-4.65
2022-11-27T13:05:51.676Z,-4.60
2022-11-27T13:08:26.125Z,-4.71
2022-11-27T13:11:08.622Z,-4.67
2022-11-27T13:13:44.306Z,-4.35
2022-11-27T13:16:34.276Z,-4.58
2022-11-27T13:19:18.060Z,-4.51
2022-11-27T13:21:49.634Z,-4.47
2022-11-27T13:24:19.160Z,-4.42
2022-11-27T13:26:58.093Z,-4.51
2022-11-27T13:29:30.947Z,-4.62
2022-11-27T13:32:04.263Z,-4.60
2022-11-27T13:34:44.059Z,-4.60
2022-11-27T13:37:29.208Z,-4.50
2022-11-27T13:40:03.593Z,-4.47
2022-11-27T13:42:37.464Z,-4.41
2022-11-27T13:45:11.419Z,-4.44
2022-11-27T13:47:44.753Z,-4.35
2022-11-27T13:50:16.448Z,-4.52
2022-11-27T13:52:56.933Z,-4.41
2022-11-27T13:55:28.815Z,-4.57
2022-11-27T13:58:01.131Z,-4.51
2022-11-27T14:00:36.407Z,-4.48
2022-11-27T14:03:24.303Z,-4.41
2022-11-27T14:05:53.841Z,-4.29
2022-11-27T14:08:25.870Z,-4.27
2022-11-27T14:11:01.746Z,-4.43
2022-11-27T14:13:41.309Z,-4.42
2022-11-27T14:16:29.820Z,-4.35
2022-11-27T14:19:01.072Z,-4.34
2022-11-27T14:21:42.324Z,-4.35
2022-11-27T14:24:30.135Z,-4.28
2022-11-27T14:27:04.560Z,-4.32
2022-11-27T14:29:35.844Z,-4.32
2022-11-27T14:32:07.880Z,-4.33
2022-11-27T14:34:48.342Z,-4.29
2022-11-27T14:37:26.628Z,-4.35
2022-11-27T14:39:56.755Z,-4.38
2022-11-27T14:42:29.346Z,-4.38
2022-11-27T14:45:13.278Z,-4.48
2022-11-27T14:47:49.099Z,-4.56
2022-11-27T14:50:19.504Z,-4.53
2022-11-27T14:52:53.710Z,-4.62
2022-11-27T14:55:24.211Z,-4.60
2022-11-27T14:57:54.069Z,-4.47
2022-11-27T15:00:27.396Z,-4.71
2022-11-27T15:02:57.085Z,-4.54
2022-11-27T15:05:28.746Z,-4.53
2022-11-27T15:08:05.523Z,-4.43
2022-11-27T15:10:38.841Z,-4.50
2022-11-27T15:13:10.177Z,-4.47
2022-11-27T15:15:46.027Z,-4.48
2022-11-27T15:18:24.204Z,-4.48
2022-11-27T15:21:00.346Z,-4.44
2022-11-27T15:23:33.992Z,-4.36
2022-11-27T15:26:15.847Z,-4.34
2022-11-27T15:28:53.675Z,-4.34
2022-11-27T15:31:32.641Z,-4.34
2022-11-27T15:34:04.784Z,-4.46
2022-11-27T15:36:45.469Z,-4.48
2022-11-27T15:39:22.504Z,-4.46
2022-11-27T15:41:53.524Z,-4.41
2022-11-27T15:44:23.248Z,-4.49
2022-11-27T15:47:01.406Z,-4.44
2022-11-27T15:49:31.222Z,-4.48
2022-11-27T15:52:00.576Z,-4.50
2022-11-27T15:54:30.188Z,-4.60
2022-11-27T15:56:59.586Z,-4.44
2022-11-27T15:59:33.949Z,-4.40
2022-11-27T16:02:17.563Z,-4.43
2022-11-27T16:04:47.625Z,-4.45
2022-11-27T16:07:17.100Z,-4.52
2022-11-27T16:09:51.515Z,-4.44
2022-11-27T16:12:20.867Z,-4.52
2022-11-27T16:14:50.071Z,-4.44
2022-11-27T16:17:21.304Z,-4.39
2022-11-27T16:19:50.648Z,-4.55
2022-11-27T16:22:22.937Z,-4.50
2022-11-27T16:24:52.423Z,-4.49
2022-11-27T16:27:21.685Z,-4.53
2022-11-27T16:29:52.340Z,-4.61
2022-11-27T16:32:23.764Z,-4.65
2022-11-27T16:34:59.747Z,-4.67
2022-11-27T16:37:29.620Z,-4.54
2022-11-27T16:39:58.883Z,-4.64
2022-11-27T16:42:28.343Z,-4.47
2022-11-27T16:44:57.512Z,-4.63
2022-11-27T16:47:33.466Z,-4.37
2022-11-27T16:50:04.211Z,-4.44
2022-11-27T16:53:02.484Z,-4.44
2022-11-27T16:55:32.287Z,-4.43
2022-11-27T16:58:06.091Z,-4.41
2022-11-27T17:00:38.647Z,-4.43
2022-11-27T17:03:10.582Z,-4.46
2022-11-27T17:05:47.537Z,-4.43
2022-11-27T17:08:24.891Z,-4.35
2022-11-27T17:10:56.811Z,-4.40
2022-11-27T17:13:32.034Z,-4.37
2022-11-27T17:16:03.406Z,-4.37
2022-11-27T17:18:35.534Z,-4.40
2022-11-27T17:21:08.317Z,-4.73
2022-11-27T17:23:38.056Z,-4.57
2022-11-27T17:26:12.085Z,-4.54
2022-11-27T17:28:55.709Z,-4.54
2022-11-27T17:31:32.294Z,-4.86
2022-11-27T17:34:05.379Z,-4.66
2022-11-27T17:36:43.307Z,-4.62
2022-11-27T17:39:16.768Z,-4.52
2022-11-27T17:41:46.687Z,-4.61
2022-11-27T17:44:21.525Z,-4.40
2022-11-27T17:47:06.411Z,-4.51
2022-11-27T17:49:40.553Z,-4.63
2022-11-27T17:52:17.115Z,-4.54
2022-11-27T17:54:48.409Z,-4.78
2022-11-27T17:57:18.506Z,-4.68
2022-11-27T17:59:52.368Z,-4.74
2022-11-27T18:02:29.315Z,-4.67
2022-11-27T18:07:43.703Z,-4.51
2022-11-27T18:10:15.738Z,-4.53
2022-11-27T18:12:50.118Z,-4.46
2022-11-27T18:15:32.568Z,-4.54
2022-11-27T18:18:02.882Z,-4.53
2022-11-27T18:20:34.706Z,-4.67
2022-11-27T18:23:13.767Z,-4.61
2022-11-27T18:28:24.905Z,-4.80
2022-11-27T18:31:00.524Z,-4.78
2022-11-27T18:33:39.112Z,-4.71
2022-11-27T18:36:17.333Z,-4.54
2022-11-27T18:38:49.650Z,-4.57
2022-11-27T18:41:21.631Z,-4.65
2022-11-27T18:43:53.117Z,-4.56
2022-11-27T18:46:31.706Z,-4.58
2022-11-27T18:49:02.591Z,-4.60
2022-11-27T18:51:35.896Z,-4.82
2022-11-27T18:54:13.330Z,-4.71
2022-11-27T18:56:43.094Z,-4.63
2022-11-27T18:59:20.967Z,-4.56
2022-11-27T19:01:50.667Z,-4.64
2022-11-27T19:04:25.239Z,-4.70
2022-11-27T19:07:00.576Z,-4.91
2022-11-27T19:09:31.717Z,-4.75
2022-11-27T19:12:05.519Z,-4.66
2022-11-27T19:14:36.022Z,-4.67
2022-11-27T19:17:05.924Z,-4.67
2022-11-27T19:22:29.700Z,-4.72
2022-11-27T19:25:00.375Z,-4.77
2022-11-27T19:27:37.107Z,-4.60
2022-11-27T19:30:09.353Z,-5.01
2022-11-27T19:32:47.765Z,-4.69
2022-11-27T19:35:23.953Z,-4.67
2022-11-27T19:38:05.727Z,-4.65
2022-11-27T19:40:38.327Z,-4.67
2022-11-27T19:43:10.827Z,-4.63
2022-11-27T19:45:40.630Z,-4.63
2022-11-27T19:48:10.227Z,-4.74
2022-11-27T19:50:41.024Z,-4.71
2022-11-27T19:53:15.358Z,-4.74
2022-11-27T19:55:45.163Z,-4.87
2022-11-27T19:58:15.024Z,-4.68
2022-11-27T20:00:44.522Z,-4.71
2022-11-27T20:03:14.332Z,-4.60
2022-11-27T20:05:43.889Z,-4.63
2022-11-27T20:10:53.805Z,-4.64
2022-11-27T20:13:23.538Z,-4.58
2022-11-27T20:15:58.059Z,-4.65
2022-11-27T20:18:27.872Z,-4.88
2022-11-27T20:21:11.496Z,-4.97
2022-11-27T20:23:45.295Z,-4.79
2022-11-27T20:26:17.142Z,-4.74
2022-11-27T20:28:47.796Z,-4.61
2022-11-27T20:31:27.956Z,-4.56
2022-11-27T20:34:00.261Z,-4.52
2022-11-27T20:36:39.824Z,-4.56
2022-11-27T20:39:19.239Z,-4.61
2022-11-27T20:42:03.143Z,-4.68
2022-11-27T20:44:32.599Z,-4.98
2022-11-27T20:47:01.799Z,-4.95
2022-11-27T20:52:19.395Z,-4.77
2022-11-27T20:54:50.861Z,-4.88
2022-11-27T20:57:20.485Z,-4.75
2022-11-27T20:59:49.956Z,-4.82
2022-11-27T21:02:19.453Z,-4.87
2022-11-27T21:04:48.815Z,-4.78
2022-11-27T21:07:19.038Z,-4.73
2022-11-27T21:09:50.888Z,-4.91
2022-11-27T21:12:20.191Z,-5.02
2022-11-27T21:14:49.439Z,-4.85
2022-11-27T21:17:19.382Z,-4.96
2022-11-27T21:19:48.638Z,-4.90
2022-11-27T21:22:21.809Z,-4.79
2022-11-27T21:24:54.058Z,-4.70
2022-11-27T21:27:25.355Z,-4.63
2022-11-27T21:30:00.630Z,-4.76
2022-11-27T21:32:31.083Z,-4.68
2022-11-27T21:35:00.350Z,-4.65
2022-11-27T21:37:39.966Z,-4.58
2022-11-27T21:40:17.901Z,-4.58
2022-11-27T21:42:47.421Z,-4.67
2022-11-27T21:45:16.838Z,-4.53
2022-11-27T21:47:47.044Z,-4.59
2022-11-27T21:50:21.572Z,-4.46
2022-11-27T21:53:02.186Z,-4.46
2022-11-27T21:55:33.708Z,-4.57
2022-11-27T21:58:03.115Z,-4.63
2022-11-27T22:00:32.412Z,-4.55
2022-11-27T22:03:01.726Z,-4.56
2022-11-27T22:05:31.065Z,-4.43
2022-11-27T22:08:00.498Z,-4.42
2022-11-27T22:10:29.916Z,-4.37
2022-11-27T22:13:01.337Z,-4.35
2022-11-27T22:15:31.911Z,-4.34
2022-11-27T22:18:01.263Z,-4.35
2022-11-27T22:20:30.641Z,-4.48
2022-11-27T22:23:00.312Z,-4.36
2022-11-27T22:25:30.322Z,-4.39
2022-11-27T22:30:43.409Z,-4.22
2022-11-27T22:33:17.900Z,-4.23
2022-11-27T22:35:47.143Z,-4.18
2022-11-27T22:38:16.386Z,-4.28
2022-11-27T22:40:47.052Z,-4.31
2022-11-27T22:43:18.398Z,-4.34
2022-11-27T22:45:48.777Z,-4.28
2022-11-27T22:48:18.534Z,-4.29
2022-11-27T22:50:48.033Z,-4.24
2022-11-27T22:53:17.206Z,-4.24
2022-11-27T22:55:46.377Z,-4.35
2022-11-27T22:58:17.538Z,-4.29
2022-11-27T23:00:47.076Z,-4.23
2022-11-27T23:03:16.512Z,-4.18
2022-11-27T23:08:22.400Z,-4.14
2022-11-27T23:10:52.212Z,-4.40
2022-11-27T23:13:23.478Z,-4.31
2022-11-27T23:15:53.956Z,-4.27
2022-11-27T23:18:28.218Z,-4.17
2022-11-27T23:20:57.632Z,-4.13
2022-11-27T23:23:26.858Z,-4.15
2022-11-27T23:25:57.146Z,-4.14
2022-11-27T23:28:28.375Z,-4.12
2022-11-27T23:31:15.614Z,-4.22
2022-11-27T23:33:47.062Z,-4.00
2022-11-27T23:36:16.188Z,-4.00
2022-11-27T23:38:45.438Z,-3.91
2022-11-27T23:41:21.672Z,-4.25
2022-11-27T23:43:53.847Z,-4.17
2022-11-27T23:46:31.122Z,-3.99
2022-11-27T23:49:02.043Z,-4.06
2022-11-27T23:51:33.159Z,-4.10
2022-11-27T23:54:03.256Z,-3.99
2022-11-27T23:56:44.565Z,-3.96
2022-11-27T23:59:15.843Z,-3.82
